sensor_id;sensor_type;location;lat;lon;timestamp;temperature;humidity
17992;DHT22;9121;50.926;5.340;2022-08-18T00:01:07;19.90;99.90
17992;DHT22;9121;50.926;5.340;2022-08-18T00:03:36;19.90;99.90
17992;DHT22;9121;50.926;5.340;2022-08-18T00:06:03;19.80;99.90
17992;DHT22;9121;50.926;5.340;2022-08-18T00:08:30;19.70;99.90
17992;DHT22;9121;50.926;5.340;2022-08-18T00:10:57;19.80;99.90
17992;DHT22;9121;50.926;5.340;2022-08-18T00:13:24;19.80;99.90
17992;DHT22;9121;50.926;5.340;2022-08-18T00:15:51;19.80;99.90
17992;DHT22;9121;50.926;5.340;2022-08-18T00:18:17;19.80;99.90
17992;DHT22;9121;50.926;5.340;2022-08-18T00:20:47;19.80;99.90
17992;DHT22;9121;50.926;5.340;2022-08-18T00:23:14;19.70;99.90
17992;DHT22;9121;50.926;5.340;2022-08-18T00:25:41;19.70;99.90
17992;DHT22;9121;50.926;5.340;2022-08-18T00:28:09;19.60;99.90
17992;DHT22;9121;50.926;5.340;2022-08-18T00:30:37;19.60;99.90
17992;DHT22;9121;50.926;5.340;2022-08-18T00:33:04;19.60;99.90
17992;DHT22;9121;50.926;5.340;2022-08-18T00:35:33;19.60;99.90
17992;DHT22;9121;50.926;5.340;2022-08-18T00:38:04;19.70;99.90
17992;DHT22;9121;50.926;5.340;2022-08-18T00:40:37;19.70;99.90
17992;DHT22;9121;50.926;5.340;2022-08-18T00:43:06;19.70;99.90
17992;DHT22;9121;50.926;5.340;2022-08-18T00:45:36;19.90;99.90
17992;DHT22;9121;50.926;5.340;2022-08-18T00:48:06;19.90;99.90
17992;DHT22;9121;50.926;5.340;2022-08-18T00:50:37;19.90;99.90
17992;DHT22;9121;50.926;5.340;2022-08-18T00:53:09;19.90;99.90
17992;DHT22;9121;50.926;5.340;2022-08-18T00:55:39;19.90;99.90
17992;DHT22;9121;50.926;5.340;2022-08-18T00:58:10;19.90;99.90
17992;DHT22;9121;50.926;5.340;2022-08-18T01:00:40;20.00;99.90
17992;DHT22;9121;50.926;5.340;2022-08-18T01:03:11;20.00;99.90
17992;DHT22;9121;50.926;5.340;2022-08-18T01:05:44;20.00;99.90
17992;DHT22;9121;50.926;5.340;2022-08-18T01:08:15;20.00;99.90
17992;DHT22;9121;50.926;5.340;2022-08-18T01:10:43;20.00;99.90
17992;DHT22;9121;50.926;5.340;2022-08-18T01:13:10;20.10;99.90
17992;DHT22;9121;50.926;5.340;2022-08-18T01:15:37;20.10;99.90
17992;DHT22;9121;50.926;5.340;2022-08-18T01:18:08;20.10;99.90
17992;DHT22;9121;50.926;5.340;2022-08-18T01:20:58;20.10;99.90
17992;DHT22;9121;50.926;5.340;2022-08-18T01:23:50;20.10;99.90
17992;DHT22;9121;50.926;5.340;2022-08-18T01:26:19;20.20;99.90
17992;DHT22;9121;50.926;5.340;2022-08-18T01:28:46;20.20;99.90
17992;DHT22;9121;50.926;5.340;2022-08-18T01:31:29;20.20;99.90
17992;DHT22;9121;50.926;5.340;2022-08-18T01:33:58;20.20;99.90
17992;DHT22;9121;50.926;5.340;2022-08-18T01:36:26;20.30;99.90
17992;DHT22;9121;50.926;5.340;2022-08-18T01:38:55;20.20;99.90
17992;DHT22;9121;50.926;5.340;2022-08-18T01:41:22;20.20;99.90
17992;DHT22;9121;50.926;5.340;2022-08-18T01:43:50;20.20;99.90
17992;DHT22;9121;50.926;5.340;2022-08-18T01:46:19;20.00;99.90
17992;DHT22;9121;50.926;5.340;2022-08-18T01:48:48;19.80;99.90
17992;DHT22;9121;50.926;5.340;2022-08-18T01:51:16;19.90;99.90
17992;DHT22;9121;50.926;5.340;2022-08-18T01:53:45;19.80;99.90
17992;DHT22;9121;50.926;5.340;2022-08-18T01:56:14;19.80;99.90
17992;DHT22;9121;50.926;5.340;2022-08-18T01:58:43;19.80;99.90
17992;DHT22;9121;50.926;5.340;2022-08-18T02:01:12;19.70;99.90
17992;DHT22;9121;50.926;5.340;2022-08-18T02:03:43;19.70;99.90
17992;DHT22;9121;50.926;5.340;2022-08-18T02:06:13;19.80;99.90
17992;DHT22;9121;50.926;5.340;2022-08-18T02:08:41;19.80;99.90
17992;DHT22;9121;50.926;5.340;2022-08-18T02:11:08;19.70;99.90
17992;DHT22;9121;50.926;5.340;2022-08-18T02:13:39;19.70;99.90
17992;DHT22;9121;50.926;5.340;2022-08-18T02:16:06;19.60;99.90
17992;DHT22;9121;50.926;5.340;2022-08-18T02:18:34;19.60;99.90
17992;DHT22;9121;50.926;5.340;2022-08-18T02:21:07;19.60;99.90
17992;DHT22;9121;50.926;5.340;2022-08-18T02:23:36;19.60;99.90
17992;DHT22;9121;50.926;5.340;2022-08-18T02:26:05;19.60;99.90
17992;DHT22;9121;50.926;5.340;2022-08-18T02:28:32;19.50;99.90
17992;DHT22;9121;50.926;5.340;2022-08-18T02:31:05;19.50;99.90
17992;DHT22;9121;50.926;5.340;2022-08-18T02:33:33;19.50;99.90
17992;DHT22;9121;50.926;5.340;2022-08-18T02:36:01;19.60;99.90
17992;DHT22;9121;50.926;5.340;2022-08-18T02:38:29;19.50;99.90
17992;DHT22;9121;50.926;5.340;2022-08-18T02:40:56;19.50;99.90
17992;DHT22;9121;50.926;5.340;2022-08-18T02:43:25;19.50;99.90
17992;DHT22;9121;50.926;5.340;2022-08-18T02:45:52;19.60;99.90
17992;DHT22;9121;50.926;5.340;2022-08-18T02:48:20;19.60;99.90
17992;DHT22;9121;50.926;5.340;2022-08-18T02:50:49;19.50;99.90
17992;DHT22;9121;50.926;5.340;2022-08-18T02:53:16;19.60;99.90
17992;DHT22;9121;50.926;5.340;2022-08-18T02:55:48;19.60;99.90
17992;DHT22;9121;50.926;5.340;2022-08-18T02:58:15;19.60;99.90
17992;DHT22;9121;50.926;5.340;2022-08-18T03:00:44;19.70;99.90
17992;DHT22;9121;50.926;5.340;2022-08-18T03:03:11;19.70;99.90
17992;DHT22;9121;50.926;5.340;2022-08-18T03:05:40;19.60;99.90
17992;DHT22;9121;50.926;5.340;2022-08-18T03:08:07;19.60;99.90
17992;DHT22;9121;50.926;5.340;2022-08-18T03:10:35;19.60;99.90
17992;DHT22;9121;50.926;5.340;2022-08-18T03:13:04;19.60;99.90
17992;DHT22;9121;50.926;5.340;2022-08-18T03:15:31;19.60;99.90
17992;DHT22;9121;50.926;5.340;2022-08-18T03:17:58;19.60;99.90
17992;DHT22;9121;50.926;5.340;2022-08-18T03:20:25;19.60;99.90
17992;DHT22;9121;50.926;5.340;2022-08-18T03:22:54;19.60;99.90
17992;DHT22;9121;50.926;5.340;2022-08-18T03:25:21;19.60;99.90
17992;DHT22;9121;50.926;5.340;2022-08-18T03:27:47;19.60;99.90
17992;DHT22;9121;50.926;5.340;2022-08-18T03:30:14;19.60;99.90
17992;DHT22;9121;50.926;5.340;2022-08-18T03:32:41;19.60;99.90
17992;DHT22;9121;50.926;5.340;2022-08-18T03:35:08;19.60;99.90
17992;DHT22;9121;50.926;5.340;2022-08-18T03:37:35;19.60;99.90
17992;DHT22;9121;50.926;5.340;2022-08-18T03:40:04;19.60;99.90
17992;DHT22;9121;50.926;5.340;2022-08-18T03:42:32;19.60;99.90
17992;DHT22;9121;50.926;5.340;2022-08-18T03:45:02;19.60;99.90
17992;DHT22;9121;50.926;5.340;2022-08-18T03:47:30;19.60;99.90
17992;DHT22;9121;50.926;5.340;2022-08-18T03:49:59;19.60;99.90
17992;DHT22;9121;50.926;5.340;2022-08-18T03:52:25;19.60;99.90
17992;DHT22;9121;50.926;5.340;2022-08-18T03:54:52;19.60;99.90
17992;DHT22;9121;50.926;5.340;2022-08-18T03:57:21;19.60;99.90
17992;DHT22;9121;50.926;5.340;2022-08-18T03:59:48;19.60;99.90
17992;DHT22;9121;50.926;5.340;2022-08-18T04:02:14;19.60;99.90
17992;DHT22;9121;50.926;5.340;2022-08-18T04:04:42;19.70;99.90
17992;DHT22;9121;50.926;5.340;2022-08-18T04:07:11;19.70;99.90
17992;DHT22;9121;50.926;5.340;2022-08-18T04:09:42;19.80;99.90
17992;DHT22;9121;50.926;5.340;2022-08-18T04:12:11;19.70;99.90
17992;DHT22;9121;50.926;5.340;2022-08-18T04:14:41;19.70;99.90
17992;DHT22;9121;50.926;5.340;2022-08-18T04:17:08;19.70;99.90
17992;DHT22;9121;50.926;5.340;2022-08-18T04:19:36;19.70;99.90
17992;DHT22;9121;50.926;5.340;2022-08-18T04:22:03;19.70;99.90
17992;DHT22;9121;50.926;5.340;2022-08-18T04:24:31;19.70;99.90
17992;DHT22;9121;50.926;5.340;2022-08-18T04:27:01;19.70;99.90
17992;DHT22;9121;50.926;5.340;2022-08-18T04:29:29;19.70;99.90
17992;DHT22;9121;50.926;5.340;2022-08-18T04:32:00;19.80;99.90
17992;DHT22;9121;50.926;5.340;2022-08-18T04:34:30;19.80;99.90
17992;DHT22;9121;50.926;5.340;2022-08-18T04:36:57;19.80;99.90
17992;DHT22;9121;50.926;5.340;2022-08-18T04:39:24;19.80;99.90
17992;DHT22;9121;50.926;5.340;2022-08-18T04:41:51;19.90;99.90
17992;DHT22;9121;50.926;5.340;2022-08-18T04:44:19;19.90;99.90
17992;DHT22;9121;50.926;5.340;2022-08-18T04:46:47;19.90;99.90
17992;DHT22;9121;50.926;5.340;2022-08-18T04:49:18;19.80;99.90
17992;DHT22;9121;50.926;5.340;2022-08-18T04:51:48;19.90;99.90
17992;DHT22;9121;50.926;5.340;2022-08-18T04:54:38;19.90;99.90
17992;DHT22;9121;50.926;5.340;2022-08-18T04:57:09;19.90;99.90
17992;DHT22;9121;50.926;5.340;2022-08-18T04:59:37;20.00;99.90
17992;DHT22;9121;50.926;5.340;2022-08-18T05:02:06;20.00;99.90
17992;DHT22;9121;50.926;5.340;2022-08-18T05:04:35;20.00;99.90
17992;DHT22;9121;50.926;5.340;2022-08-18T05:07:03;20.00;99.90
17992;DHT22;9121;50.926;5.340;2022-08-18T05:09:31;20.00;99.90
17992;DHT22;9121;50.926;5.340;2022-08-18T05:11:58;20.00;99.90
17992;DHT22;9121;50.926;5.340;2022-08-18T05:14:26;19.90;99.90
17992;DHT22;9121;50.926;5.340;2022-08-18T05:16:57;20.00;99.90
17992;DHT22;9121;50.926;5.340;2022-08-18T05:19:24;20.10;99.90
17992;DHT22;9121;50.926;5.340;2022-08-18T05:21:53;20.10;99.90
17992;DHT22;9121;50.926;5.340;2022-08-18T05:24:21;20.10;99.90
17992;DHT22;9121;50.926;5.340;2022-08-18T05:26:50;20.10;99.90
17992;DHT22;9121;50.926;5.340;2022-08-18T05:29:17;20.10;99.90
17992;DHT22;9121;50.926;5.340;2022-08-18T05:31:46;20.10;99.90
17992;DHT22;9121;50.926;5.340;2022-08-18T05:34:14;20.10;99.90
17992;DHT22;9121;50.926;5.340;2022-08-18T05:36:57;20.10;99.90
17992;DHT22;9121;50.926;5.340;2022-08-18T05:39:31;20.10;99.90
17992;DHT22;9121;50.926;5.340;2022-08-18T05:42:04;20.20;99.90
17992;DHT22;9121;50.926;5.340;2022-08-18T05:44:34;20.20;99.90
17992;DHT22;9121;50.926;5.340;2022-08-18T05:47:09;20.20;99.90
17992;DHT22;9121;50.926;5.340;2022-08-18T05:49:37;20.20;99.90
17992;DHT22;9121;50.926;5.340;2022-08-18T05:52:11;20.20;99.90
17992;DHT22;9121;50.926;5.340;2022-08-18T05:54:44;20.20;99.90
17992;DHT22;9121;50.926;5.340;2022-08-18T05:57:36;20.30;99.90
17992;DHT22;9121;50.926;5.340;2022-08-18T06:00:05;20.30;99.90
17992;DHT22;9121;50.926;5.340;2022-08-18T06:02:37;20.30;99.90
17992;DHT22;9121;50.926;5.340;2022-08-18T06:05:07;20.30;99.90
17992;DHT22;9121;50.926;5.340;2022-08-18T06:07:42;20.30;99.90
17992;DHT22;9121;50.926;5.340;2022-08-18T06:10:09;20.30;99.90
17992;DHT22;9121;50.926;5.340;2022-08-18T06:12:40;20.30;99.90
17992;DHT22;9121;50.926;5.340;2022-08-18T06:15:12;20.40;99.90
17992;DHT22;9121;50.926;5.340;2022-08-18T06:18:05;20.30;99.90
17992;DHT22;9121;50.926;5.340;2022-08-18T06:20:43;20.40;99.90
17992;DHT22;9121;50.926;5.340;2022-08-18T06:23:22;20.50;99.90
17992;DHT22;9121;50.926;5.340;2022-08-18T06:26:02;20.60;99.90
17992;DHT22;9121;50.926;5.340;2022-08-18T06:28:43;20.70;99.90
17992;DHT22;9121;50.926;5.340;2022-08-18T06:31:15;20.70;99.90
17992;DHT22;9121;50.926;5.340;2022-08-18T06:33:51;20.80;99.90
17992;DHT22;9121;50.926;5.340;2022-08-18T06:36:29;20.80;99.90
17992;DHT22;9121;50.926;5.340;2022-08-18T06:39:04;20.90;99.90
17992;DHT22;9121;50.926;5.340;2022-08-18T06:41:34;20.90;99.90
17992;DHT22;9121;50.926;5.340;2022-08-18T06:44:04;20.90;99.90
17992;DHT22;9121;50.926;5.340;2022-08-18T06:46:39;20.90;99.90
17992;DHT22;9121;50.926;5.340;2022-08-18T06:49:09;20.90;99.90
17992;DHT22;9121;50.926;5.340;2022-08-18T06:51:37;20.90;99.90
17992;DHT22;9121;50.926;5.340;2022-08-18T06:54:07;21.00;99.90
17992;DHT22;9121;50.926;5.340;2022-08-18T06:56:52;21.10;99.90
17992;DHT22;9121;50.926;5.340;2022-08-18T06:59:27;21.20;99.90
17992;DHT22;9121;50.926;5.340;2022-08-18T07:01:57;21.10;99.90
17992;DHT22;9121;50.926;5.340;2022-08-18T07:04:40;21.10;99.90
17992;DHT22;9121;50.926;5.340;2022-08-18T07:07:23;21.20;99.90
17992;DHT22;9121;50.926;5.340;2022-08-18T07:09:56;21.30;99.90
17992;DHT22;9121;50.926;5.340;2022-08-18T07:12:25;21.20;99.90
17992;DHT22;9121;50.926;5.340;2022-08-18T07:14:54;21.20;99.90
17992;DHT22;9121;50.926;5.340;2022-08-18T07:17:24;21.20;99.90
17992;DHT22;9121;50.926;5.340;2022-08-18T07:20:00;21.30;99.90
17992;DHT22;9121;50.926;5.340;2022-08-18T07:22:27;21.20;99.90
17992;DHT22;9121;50.926;5.340;2022-08-18T07:24:59;21.20;99.90
17992;DHT22;9121;50.926;5.340;2022-08-18T07:27:44;21.10;99.90
17992;DHT22;9121;50.926;5.340;2022-08-18T07:30:25;21.20;99.90
17992;DHT22;9121;50.926;5.340;2022-08-18T07:32:56;21.10;99.90
17992;DHT22;9121;50.926;5.340;2022-08-18T07:35:31;21.10;99.90
17992;DHT22;9121;50.926;5.340;2022-08-18T07:38:03;21.10;99.90
17992;DHT22;9121;50.926;5.340;2022-08-18T07:40:38;21.10;99.90
17992;DHT22;9121;50.926;5.340;2022-08-18T07:43:11;21.00;99.90
17992;DHT22;9121;50.926;5.340;2022-08-18T07:45:42;21.10;99.90
17992;DHT22;9121;50.926;5.340;2022-08-18T07:48:12;21.20;99.90
17992;DHT22;9121;50.926;5.340;2022-08-18T07:50:46;21.20;99.90
17992;DHT22;9121;50.926;5.340;2022-08-18T07:53:29;21.30;99.90
17992;DHT22;9121;50.926;5.340;2022-08-18T07:56:04;21.40;99.90
17992;DHT22;9121;50.926;5.340;2022-08-18T07:58:36;21.40;99.90
17992;DHT22;9121;50.926;5.340;2022-08-18T08:01:11;21.40;99.90
17992;DHT22;9121;50.926;5.340;2022-08-18T08:03:48;21.40;99.90
17992;DHT22;9121;50.926;5.340;2022-08-18T08:06:21;21.50;99.90
17992;DHT22;9121;50.926;5.340;2022-08-18T08:08:56;21.50;99.90
17992;DHT22;9121;50.926;5.340;2022-08-18T08:11:38;21.80;99.90
17992;DHT22;9121;50.926;5.340;2022-08-18T08:14:32;22.00;99.90
17992;DHT22;9121;50.926;5.340;2022-08-18T08:17:09;22.20;99.90
17992;DHT22;9121;50.926;5.340;2022-08-18T08:19:58;22.30;99.90
17992;DHT22;9121;50.926;5.340;2022-08-18T08:22:32;22.50;99.90
17992;DHT22;9121;50.926;5.340;2022-08-18T08:25:07;22.60;99.90
17992;DHT22;9121;50.926;5.340;2022-08-18T08:27:47;22.60;99.90
17992;DHT22;9121;50.926;5.340;2022-08-18T08:30:22;22.60;99.90
17992;DHT22;9121;50.926;5.340;2022-08-18T08:32:59;22.70;99.90
17992;DHT22;9121;50.926;5.340;2022-08-18T08:35:34;22.50;99.90
17992;DHT22;9121;50.926;5.340;2022-08-18T08:38:09;22.40;99.90
17992;DHT22;9121;50.926;5.340;2022-08-18T08:40:44;22.30;99.90
17992;DHT22;9121;50.926;5.340;2022-08-18T08:43:17;22.40;99.90
17992;DHT22;9121;50.926;5.340;2022-08-18T08:45:48;22.60;99.90
17992;DHT22;9121;50.926;5.340;2022-08-18T08:48:22;22.60;99.90
17992;DHT22;9121;50.926;5.340;2022-08-18T08:50:54;22.60;99.90
17992;DHT22;9121;50.926;5.340;2022-08-18T08:53:25;22.80;99.90
17992;DHT22;9121;50.926;5.340;2022-08-18T08:55:56;22.80;99.90
17992;DHT22;9121;50.926;5.340;2022-08-18T08:58:30;22.90;99.90
17992;DHT22;9121;50.926;5.340;2022-08-18T09:00:59;23.00;99.90
17992;DHT22;9121;50.926;5.340;2022-08-18T09:03:36;23.10;99.90
17992;DHT22;9121;50.926;5.340;2022-08-18T09:06:17;23.20;99.90
17992;DHT22;9121;50.926;5.340;2022-08-18T09:09:18;23.10;99.90
17992;DHT22;9121;50.926;5.340;2022-08-18T09:12:11;23.00;99.90
17992;DHT22;9121;50.926;5.340;2022-08-18T09:20:52;23.30;99.90
17992;DHT22;9121;50.926;5.340;2022-08-18T09:23:25;23.20;99.90
17992;DHT22;9121;50.926;5.340;2022-08-18T09:25:54;23.40;99.90
17992;DHT22;9121;50.926;5.340;2022-08-18T09:28:51;23.60;99.90
17992;DHT22;9121;50.926;5.340;2022-08-18T09:31:22;24.10;99.90
17992;DHT22;9121;50.926;5.340;2022-08-18T09:34:23;24.20;99.90
17992;DHT22;9121;50.926;5.340;2022-08-18T09:37:10;24.20;99.90
17992;DHT22;9121;50.926;5.340;2022-08-18T09:39:40;24.30;99.90
17992;DHT22;9121;50.926;5.340;2022-08-18T09:42:31;24.30;99.90
17992;DHT22;9121;50.926;5.340;2022-08-18T09:45:07;24.20;99.90
17992;DHT22;9121;50.926;5.340;2022-08-18T09:48:00;24.00;99.90
17992;DHT22;9121;50.926;5.340;2022-08-18T09:50:51;24.10;99.90
17992;DHT22;9121;50.926;5.340;2022-08-18T09:53:36;24.40;99.90
17992;DHT22;9121;50.926;5.340;2022-08-18T09:56:17;24.60;99.90
17992;DHT22;9121;50.926;5.340;2022-08-18T09:59:03;24.10;99.90
17992;DHT22;9121;50.926;5.340;2022-08-18T10:01:36;23.90;99.90
17992;DHT22;9121;50.926;5.340;2022-08-18T10:04:29;23.90;99.90
17992;DHT22;9121;50.926;5.340;2022-08-18T10:10:08;23.50;99.90
17992;DHT22;9121;50.926;5.340;2022-08-18T10:12:55;23.80;99.90
17992;DHT22;9121;50.926;5.340;2022-08-18T10:15:38;23.90;99.90
17992;DHT22;9121;50.926;5.340;2022-08-18T10:18:31;24.30;99.90
17992;DHT22;9121;50.926;5.340;2022-08-18T10:21:08;24.70;99.90
17992;DHT22;9121;50.926;5.340;2022-08-18T10:23:47;24.80;99.90
17992;DHT22;9121;50.926;5.340;2022-08-18T10:29:48;25.00;99.90
17992;DHT22;9121;50.926;5.340;2022-08-18T10:32:21;25.30;99.90
17992;DHT22;9121;50.926;5.340;2022-08-18T10:34:50;25.20;99.90
17992;DHT22;9121;50.926;5.340;2022-08-18T10:37:21;25.00;99.90
17992;DHT22;9121;50.926;5.340;2022-08-18T10:39:52;24.80;99.90
17992;DHT22;9121;50.926;5.340;2022-08-18T10:42:23;24.70;99.90
17992;DHT22;9121;50.926;5.340;2022-08-18T10:44:54;24.60;99.90
17992;DHT22;9121;50.926;5.340;2022-08-18T10:47:28;24.70;99.90
17992;DHT22;9121;50.926;5.340;2022-08-18T10:49:58;24.90;99.90
17992;DHT22;9121;50.926;5.340;2022-08-18T10:52:46;24.60;99.90
17992;DHT22;9121;50.926;5.340;2022-08-18T10:58:41;24.90;99.90
17992;DHT22;9121;50.926;5.340;2022-08-18T11:01:18;24.90;99.90
17992;DHT22;9121;50.926;5.340;2022-08-18T11:04:04;24.90;99.90
17992;DHT22;9121;50.926;5.340;2022-08-18T11:06:38;25.30;99.90
17992;DHT22;9121;50.926;5.340;2022-08-18T11:09:09;25.60;99.90
17992;DHT22;9121;50.926;5.340;2022-08-18T11:11:39;25.80;99.90
17992;DHT22;9121;50.926;5.340;2022-08-18T11:14:27;25.70;99.90
17992;DHT22;9121;50.926;5.340;2022-08-18T11:17:03;25.60;99.90
17992;DHT22;9121;50.926;5.340;2022-08-18T11:19:36;25.20;99.90
17992;DHT22;9121;50.926;5.340;2022-08-18T11:22:04;25.10;99.90
17992;DHT22;9121;50.926;5.340;2022-08-18T11:24:32;25.40;99.90
17992;DHT22;9121;50.926;5.340;2022-08-18T11:27:02;25.80;99.90
17992;DHT22;9121;50.926;5.340;2022-08-18T11:29:32;26.20;99.90
17992;DHT22;9121;50.926;5.340;2022-08-18T11:32:05;26.30;99.90
17992;DHT22;9121;50.926;5.340;2022-08-18T11:34:37;26.20;99.90
17992;DHT22;9121;50.926;5.340;2022-08-18T11:37:07;25.50;99.90
17992;DHT22;9121;50.926;5.340;2022-08-18T11:39:46;25.20;99.90
17992;DHT22;9121;50.926;5.340;2022-08-18T11:42:15;25.30;99.90
17992;DHT22;9121;50.926;5.340;2022-08-18T11:44:43;25.30;99.90
17992;DHT22;9121;50.926;5.340;2022-08-18T11:47:16;25.30;99.90
17992;DHT22;9121;50.926;5.340;2022-08-18T11:49:51;25.10;99.90
17992;DHT22;9121;50.926;5.340;2022-08-18T11:52:23;25.10;99.90
17992;DHT22;9121;50.926;5.340;2022-08-18T11:54:58;25.30;99.90
17992;DHT22;9121;50.926;5.340;2022-08-18T11:57:36;25.80;99.90
17992;DHT22;9121;50.926;5.340;2022-08-18T12:00:35;26.20;99.90
17992;DHT22;9121;50.926;5.340;2022-08-18T12:03:03;26.60;99.90
17992;DHT22;9121;50.926;5.340;2022-08-18T12:05:44;26.60;99.90
17992;DHT22;9121;50.926;5.340;2022-08-18T12:08:20;26.60;99.90
17992;DHT22;9121;50.926;5.340;2022-08-18T12:11:04;26.40;99.90
17992;DHT22;9121;50.926;5.340;2022-08-18T12:13:31;26.10;99.90
17992;DHT22;9121;50.926;5.340;2022-08-18T12:16:11;26.00;99.90
17992;DHT22;9121;50.926;5.340;2022-08-18T12:18:39;26.00;99.90
17992;DHT22;9121;50.926;5.340;2022-08-18T12:21:07;26.10;99.90
17992;DHT22;9121;50.926;5.340;2022-08-18T12:23:38;26.10;99.90
17992;DHT22;9121;50.926;5.340;2022-08-18T12:26:07;25.90;99.90
17992;DHT22;9121;50.926;5.340;2022-08-18T12:28:35;26.00;99.90
17992;DHT22;9121;50.926;5.340;2022-08-18T12:31:02;26.20;99.90
17992;DHT22;9121;50.926;5.340;2022-08-18T12:33:30;26.50;99.90
17992;DHT22;9121;50.926;5.340;2022-08-18T12:35:57;26.80;99.90
17992;DHT22;9121;50.926;5.340;2022-08-18T12:38:24;26.80;99.90
17992;DHT22;9121;50.926;5.340;2022-08-18T12:40:51;26.80;99.90
17992;DHT22;9121;50.926;5.340;2022-08-18T12:43:19;27.00;99.90
17992;DHT22;9121;50.926;5.340;2022-08-18T12:45:46;27.10;99.90
17992;DHT22;9121;50.926;5.340;2022-08-18T12:48:13;27.40;99.90
17992;DHT22;9121;50.926;5.340;2022-08-18T12:50:41;27.40;99.90
17992;DHT22;9121;50.926;5.340;2022-08-18T12:53:08;26.80;99.90
17992;DHT22;9121;50.926;5.340;2022-08-18T12:55:39;26.30;99.90
17992;DHT22;9121;50.926;5.340;2022-08-18T12:58:07;25.90;99.90
17992;DHT22;9121;50.926;5.340;2022-08-18T13:00:35;26.10;99.90
17992;DHT22;9121;50.926;5.340;2022-08-18T13:03:04;26.20;99.90
17992;DHT22;9121;50.926;5.340;2022-08-18T13:05:30;26.40;99.90
17992;DHT22;9121;50.926;5.340;2022-08-18T13:08:00;26.50;99.90
17992;DHT22;9121;50.926;5.340;2022-08-18T13:10:28;26.60;99.90
17992;DHT22;9121;50.926;5.340;2022-08-18T13:12:55;26.90;99.90
17992;DHT22;9121;50.926;5.340;2022-08-18T13:15:22;27.60;99.90
17992;DHT22;9121;50.926;5.340;2022-08-18T13:17:50;28.80;99.90
17992;DHT22;9121;50.926;5.340;2022-08-18T13:20:17;30.00;99.90
17992;DHT22;9121;50.926;5.340;2022-08-18T13:22:45;30.70;99.90
17992;DHT22;9121;50.926;5.340;2022-08-18T13:25:15;30.80;99.90
17992;DHT22;9121;50.926;5.340;2022-08-18T13:27:43;29.90;99.90
17992;DHT22;9121;50.926;5.340;2022-08-18T13:30:13;29.20;99.90
17992;DHT22;9121;50.926;5.340;2022-08-18T13:32:40;28.60;99.90
17992;DHT22;9121;50.926;5.340;2022-08-18T13:35:10;28.20;99.90
17992;DHT22;9121;50.926;5.340;2022-08-18T13:37:37;28.20;99.90
17992;DHT22;9121;50.926;5.340;2022-08-18T13:40:06;28.40;99.90
17992;DHT22;9121;50.926;5.340;2022-08-18T13:42:41;28.50;99.90
17992;DHT22;9121;50.926;5.340;2022-08-18T13:45:10;28.40;99.90
17992;DHT22;9121;50.926;5.340;2022-08-18T13:47:39;29.00;99.90
17992;DHT22;9121;50.926;5.340;2022-08-18T13:50:09;30.00;99.90
17992;DHT22;9121;50.926;5.340;2022-08-18T13:52:37;30.90;99.90
17992;DHT22;9121;50.926;5.340;2022-08-18T13:55:07;31.40;99.90
17992;DHT22;9121;50.926;5.340;2022-08-18T13:57:36;31.70;99.90
17992;DHT22;9121;50.926;5.340;2022-08-18T14:00:05;31.60;99.90
17992;DHT22;9121;50.926;5.340;2022-08-18T14:02:32;32.00;99.90
17992;DHT22;9121;50.926;5.340;2022-08-18T14:04:59;32.60;99.90
17992;DHT22;9121;50.926;5.340;2022-08-18T14:07:28;33.30;99.90
17992;DHT22;9121;50.926;5.340;2022-08-18T14:09:56;32.60;99.90
17992;DHT22;9121;50.926;5.340;2022-08-18T14:12:23;32.10;99.90
17992;DHT22;9121;50.926;5.340;2022-08-18T14:14:51;31.80;99.90
17992;DHT22;9121;50.926;5.340;2022-08-18T14:17:19;32.00;99.90
17992;DHT22;9121;50.926;5.340;2022-08-18T14:19:46;31.90;99.90
17992;DHT22;9121;50.926;5.340;2022-08-18T14:22:31;31.20;99.90
17992;DHT22;9121;50.926;5.340;2022-08-18T14:25:16;31.80;99.90
17992;DHT22;9121;50.926;5.340;2022-08-18T14:28:00;32.60;99.90
17992;DHT22;9121;50.926;5.340;2022-08-18T14:30:27;33.30;99.90
17992;DHT22;9121;50.926;5.340;2022-08-18T14:32:54;33.70;99.90
17992;DHT22;9121;50.926;5.340;2022-08-18T14:35:21;34.10;98.40
17992;DHT22;9121;50.926;5.340;2022-08-18T14:37:49;34.00;97.50
17992;DHT22;9121;50.926;5.340;2022-08-18T14:40:17;34.20;96.70
17992;DHT22;9121;50.926;5.340;2022-08-18T14:42:45;34.00;96.50
17992;DHT22;9121;50.926;5.340;2022-08-18T14:45:12;33.80;96.20
17992;DHT22;9121;50.926;5.340;2022-08-18T14:47:40;33.20;96.50
17992;DHT22;9121;50.926;5.340;2022-08-18T14:50:08;33.40;96.00
17992;DHT22;9121;50.926;5.340;2022-08-18T14:52:39;33.10;96.20
17992;DHT22;9121;50.926;5.340;2022-08-18T14:55:08;32.90;96.40
17992;DHT22;9121;50.926;5.340;2022-08-18T14:57:37;32.40;96.30
17992;DHT22;9121;50.926;5.340;2022-08-18T15:00:06;31.50;98.10
17992;DHT22;9121;50.926;5.340;2022-08-18T15:02:36;31.20;98.10
17992;DHT22;9121;50.926;5.340;2022-08-18T15:05:04;30.60;98.50
17992;DHT22;9121;50.926;5.340;2022-08-18T15:07:31;30.20;99.30
17992;DHT22;9121;50.926;5.340;2022-08-18T15:09:58;30.10;99.30
17992;DHT22;9121;50.926;5.340;2022-08-18T15:12:26;30.20;98.80
17992;DHT22;9121;50.926;5.340;2022-08-18T15:14:53;30.20;98.50
17992;DHT22;9121;50.926;5.340;2022-08-18T15:17:20;30.30;98.70
17992;DHT22;9121;50.926;5.340;2022-08-18T15:19:47;30.70;98.20
17992;DHT22;9121;50.926;5.340;2022-08-18T15:22:14;31.10;98.30
17992;DHT22;9121;50.926;5.340;2022-08-18T15:24:59;31.30;98.20
17992;DHT22;9121;50.926;5.340;2022-08-18T15:27:45;30.60;98.40
17992;DHT22;9121;50.926;5.340;2022-08-18T15:30:14;30.00;99.10
17992;DHT22;9121;50.926;5.340;2022-08-18T15:32:41;29.80;99.00
17992;DHT22;9121;50.926;5.340;2022-08-18T15:35:10;30.10;99.80
17992;DHT22;9121;50.926;5.340;2022-08-18T15:37:40;31.20;98.30
17992;DHT22;9121;50.926;5.340;2022-08-18T15:40:12;32.00;97.70
17992;DHT22;9121;50.926;5.340;2022-08-18T15:42:43;33.20;95.90
17992;DHT22;9121;50.926;5.340;2022-08-18T15:45:12;34.30;94.30
17992;DHT22;9121;50.926;5.340;2022-08-18T15:47:40;33.90;93.70
17992;DHT22;9121;50.926;5.340;2022-08-18T15:50:09;32.40;95.10
17992;DHT22;9121;50.926;5.340;2022-08-18T15:52:44;31.00;96.80
17992;DHT22;9121;50.926;5.340;2022-08-18T15:55:12;30.50;97.40
17992;DHT22;9121;50.926;5.340;2022-08-18T15:57:38;30.20;98.00
17992;DHT22;9121;50.926;5.340;2022-08-18T16:00:07;30.10;98.10
17992;DHT22;9121;50.926;5.340;2022-08-18T16:02:36;30.00;98.50
17992;DHT22;9121;50.926;5.340;2022-08-18T16:05:04;29.90;98.30
17992;DHT22;9121;50.926;5.340;2022-08-18T16:07:31;29.70;98.10
17992;DHT22;9121;50.926;5.340;2022-08-18T16:10:00;29.50;98.20
17992;DHT22;9121;50.926;5.340;2022-08-18T16:12:27;29.40;98.10
17992;DHT22;9121;50.926;5.340;2022-08-18T16:14:53;29.10;98.50
17992;DHT22;9121;50.926;5.340;2022-08-18T16:17:20;28.80;98.90
17992;DHT22;9121;50.926;5.340;2022-08-18T16:19:49;28.60;99.50
17992;DHT22;9121;50.926;5.340;2022-08-18T16:22:16;28.60;99.90
17992;DHT22;9121;50.926;5.340;2022-08-18T16:24:43;28.60;99.90
17992;DHT22;9121;50.926;5.340;2022-08-18T16:27:10;28.70;99.90
17992;DHT22;9121;50.926;5.340;2022-08-18T16:29:38;28.50;99.90